sensor_id;sensor_type;location;lat;lon;timestamp;temperature;humidity
27803;DHT22;15182;48.174;11.562;2023-06-04T00:02:26;23.20;62.40
27803;DHT22;15182;48.174;11.562;2023-06-04T00:04:54;23.20;62.50
27803;DHT22;15182;48.174;11.562;2023-06-04T00:07:23;23.20;62.50
27803;DHT22;15182;48.174;11.562;2023-06-04T00:09:52;23.10;62.50
27803;DHT22;15182;48.174;11.562;2023-06-04T00:12:19;23.10;62.60
27803;DHT22;15182;48.174;11.562;2023-06-04T00:14:47;23.00;62.60
27803;DHT22;15182;48.174;11.562;2023-06-04T00:17:15;23.00;62.50
27803;DHT22;15182;48.174;11.562;2023-06-04T00:19:43;23.00;62.50
27803;DHT22;15182;48.174;11.562;2023-06-04T00:22:10;23.00;62.70
27803;DHT22;15182;48.174;11.562;2023-06-04T00:24:39;22.90;62.60
27803;DHT22;15182;48.174;11.562;2023-06-04T00:27:08;22.90;62.60
27803;DHT22;15182;48.174;11.562;2023-06-04T00:29:36;22.90;62.60
27803;DHT22;15182;48.174;11.562;2023-06-04T00:32:04;22.80;62.60
27803;DHT22;15182;48.174;11.562;2023-06-04T00:34:32;22.80;62.70
27803;DHT22;15182;48.174;11.562;2023-06-04T00:37:00;22.80;62.80
27803;DHT22;15182;48.174;11.562;2023-06-04T00:39:28;22.80;62.90
27803;DHT22;15182;48.174;11.562;2023-06-04T00:41:57;22.70;62.80
27803;DHT22;15182;48.174;11.562;2023-06-04T00:44:25;22.70;62.90
27803;DHT22;15182;48.174;11.562;2023-06-04T00:46:53;22.70;62.80
27803;DHT22;15182;48.174;11.562;2023-06-04T00:49:21;22.70;62.70
27803;DHT22;15182;48.174;11.562;2023-06-04T00:51:50;22.60;62.60
27803;DHT22;15182;48.174;11.562;2023-06-04T00:54:19;22.60;62.70
27803;DHT22;15182;48.174;11.562;2023-06-04T00:56:48;22.60;62.70
27803;DHT22;15182;48.174;11.562;2023-06-04T00:59:17;22.60;62.70
27803;DHT22;15182;48.174;11.562;2023-06-04T01:01:49;22.50;62.50
27803;DHT22;15182;48.174;11.562;2023-06-04T01:04:24;22.50;62.60
27803;DHT22;15182;48.174;11.562;2023-06-04T01:06:57;22.50;62.50
27803;DHT22;15182;48.174;11.562;2023-06-04T01:09:26;22.40;62.40
27803;DHT22;15182;48.174;11.562;2023-06-04T01:11:54;22.40;62.50
27803;DHT22;15182;48.174;11.562;2023-06-04T01:14:25;22.30;62.40
27803;DHT22;15182;48.174;11.562;2023-06-04T01:16:56;22.30;62.30
27803;DHT22;15182;48.174;11.562;2023-06-04T01:19:55;22.30;62.20
27803;DHT22;15182;48.174;11.562;2023-06-04T01:22:35;22.30;62.40
27803;DHT22;15182;48.174;11.562;2023-06-04T01:25:12;22.20;62.40
27803;DHT22;15182;48.174;11.562;2023-06-04T01:27:48;22.20;62.40
27803;DHT22;15182;48.174;11.562;2023-06-04T01:30:21;22.20;62.40
27803;DHT22;15182;48.174;11.562;2023-06-04T01:32:52;22.10;62.20
27803;DHT22;15182;48.174;11.562;2023-06-04T01:35:20;22.10;62.30
27803;DHT22;15182;48.174;11.562;2023-06-04T01:37:48;22.10;62.40
27803;DHT22;15182;48.174;11.562;2023-06-04T01:40:17;22.10;62.40
27803;DHT22;15182;48.174;11.562;2023-06-04T01:42:45;22.00;62.20
27803;DHT22;15182;48.174;11.562;2023-06-04T01:45:13;22.00;62.10
27803;DHT22;15182;48.174;11.562;2023-06-04T01:47:42;22.00;62.10
27803;DHT22;15182;48.174;11.562;2023-06-04T01:50:10;22.00;62.00
27803;DHT22;15182;48.174;11.562;2023-06-04T01:52:38;21.90;62.00
27803;DHT22;15182;48.174;11.562;2023-06-04T01:55:09;21.90;62.00
27803;DHT22;15182;48.174;11.562;2023-06-04T01:57:39;21.90;62.00
27803;DHT22;15182;48.174;11.562;2023-06-04T02:00:08;21.90;62.10
27803;DHT22;15182;48.174;11.562;2023-06-04T02:02:43;21.80;62.10
27803;DHT22;15182;48.174;11.562;2023-06-04T02:05:12;21.90;62.00
27803;DHT22;15182;48.174;11.562;2023-06-04T02:07:41;21.80;62.00
27803;DHT22;15182;48.174;11.562;2023-06-04T02:10:12;21.80;61.90
27803;DHT22;15182;48.174;11.562;2023-06-04T02:12:53;21.70;62.00
27803;DHT22;15182;48.174;11.562;2023-06-04T02:15:23;21.70;62.00
27803;DHT22;15182;48.174;11.562;2023-06-04T02:17:57;21.70;62.00
27803;DHT22;15182;48.174;11.562;2023-06-04T02:20:26;21.70;62.00
27803;DHT22;15182;48.174;11.562;2023-06-04T02:22:54;21.60;62.00
27803;DHT22;15182;48.174;11.562;2023-06-04T02:25:22;21.60;62.00
27803;DHT22;15182;48.174;11.562;2023-06-04T02:27:50;21.60;62.20
27803;DHT22;15182;48.174;11.562;2023-06-04T02:30:18;21.60;62.20
27803;DHT22;15182;48.174;11.562;2023-06-04T02:32:46;21.60;62.20
27803;DHT22;15182;48.174;11.562;2023-06-04T02:35:18;21.50;62.30
27803;DHT22;15182;48.174;11.562;2023-06-04T02:37:47;21.50;62.30
27803;DHT22;15182;48.174;11.562;2023-06-04T02:40:15;21.50;62.50
27803;DHT22;15182;48.174;11.562;2023-06-04T02:42:42;21.40;63.30
27803;DHT22;15182;48.174;11.562;2023-06-04T02:45:11;21.40;62.60
27803;DHT22;15182;48.174;11.562;2023-06-04T02:47:38;21.40;62.70
27803;DHT22;15182;48.174;11.562;2023-06-04T02:50:07;21.40;62.90
27803;DHT22;15182;48.174;11.562;2023-06-04T02:52:37;21.40;63.20
27803;DHT22;15182;48.174;11.562;2023-06-04T02:55:06;21.30;63.20
27803;DHT22;15182;48.174;11.562;2023-06-04T02:57:35;21.30;63.30
27803;DHT22;15182;48.174;11.562;2023-06-04T03:00:03;21.20;63.50
27803;DHT22;15182;48.174;11.562;2023-06-04T03:02:40;21.20;63.70
27803;DHT22;15182;48.174;11.562;2023-06-04T03:05:10;21.20;64.00
27803;DHT22;15182;48.174;11.562;2023-06-04T03:07:41;21.20;63.90
27803;DHT22;15182;48.174;11.562;2023-06-04T03:10:12;21.10;64.70
27803;DHT22;15182;48.174;11.562;2023-06-04T03:12:40;21.10;64.20
27803;DHT22;15182;48.174;11.562;2023-06-04T03:15:09;21.10;64.30
27803;DHT22;15182;48.174;11.562;2023-06-04T03:17:37;21.00;64.40
27803;DHT22;15182;48.174;11.562;2023-06-04T03:20:06;21.00;64.50
27803;DHT22;15182;48.174;11.562;2023-06-04T03:22:34;21.00;64.70
27803;DHT22;15182;48.174;11.562;2023-06-04T03:25:04;20.90;64.90
27803;DHT22;15182;48.174;11.562;2023-06-04T03:27:34;20.90;65.10
27803;DHT22;15182;48.174;11.562;2023-06-04T03:30:02;20.90;65.10
27803;DHT22;15182;48.174;11.562;2023-06-04T03:32:40;20.90;66.20
27803;DHT22;15182;48.174;11.562;2023-06-04T03:35:10;20.80;65.30
27803;DHT22;15182;48.174;11.562;2023-06-04T03:37:37;20.80;65.30
27803;DHT22;15182;48.174;11.562;2023-06-04T03:40:08;20.80;65.50
27803;DHT22;15182;48.174;11.562;2023-06-04T03:42:40;20.70;65.70
27803;DHT22;15182;48.174;11.562;2023-06-04T03:45:09;20.70;65.60
27803;DHT22;15182;48.174;11.562;2023-06-04T03:47:38;20.70;65.60
27803;DHT22;15182;48.174;11.562;2023-06-04T03:50:08;20.70;66.60
27803;DHT22;15182;48.174;11.562;2023-06-04T03:52:37;20.60;65.60
27803;DHT22;15182;48.174;11.562;2023-06-04T03:55:07;20.60;65.70
27803;DHT22;15182;48.174;11.562;2023-06-04T03:57:38;20.60;65.80
27803;DHT22;15182;48.174;11.562;2023-06-04T04:00:07;20.60;65.70
27803;DHT22;15182;48.174;11.562;2023-06-04T04:02:41;20.60;65.90
27803;DHT22;15182;48.174;11.562;2023-06-04T04:05:16;20.60;65.80
27803;DHT22;15182;48.174;11.562;2023-06-04T04:07:46;20.50;65.80
27803;DHT22;15182;48.174;11.562;2023-06-04T04:10:15;20.50;65.90
27803;DHT22;15182;48.174;11.562;2023-06-04T04:12:43;20.50;66.10
27803;DHT22;15182;48.174;11.562;2023-06-04T04:15:12;20.50;66.10
27803;DHT22;15182;48.174;11.562;2023-06-04T04:17:40;20.50;66.00
27803;DHT22;15182;48.174;11.562;2023-06-04T04:20:10;20.50;66.10
27803;DHT22;15182;48.174;11.562;2023-06-04T04:22:45;20.50;66.30
27803;DHT22;15182;48.174;11.562;2023-06-04T04:25:13;20.50;66.30
27803;DHT22;15182;48.174;11.562;2023-06-04T04:27:43;20.50;66.20
27803;DHT22;15182;48.174;11.562;2023-06-04T04:30:12;20.50;66.40
27803;DHT22;15182;48.174;11.562;2023-06-04T04:32:42;20.50;66.30
27803;DHT22;15182;48.174;11.562;2023-06-04T04:35:17;20.40;66.10
27803;DHT22;15182;48.174;11.562;2023-06-04T04:37:46;20.50;66.10
27803;DHT22;15182;48.174;11.562;2023-06-04T04:40:17;20.50;66.10
27803;DHT22;15182;48.174;11.562;2023-06-04T04:42:49;20.40;66.00
27803;DHT22;15182;48.174;11.562;2023-06-04T04:45:18;20.40;66.10
27803;DHT22;15182;48.174;11.562;2023-06-04T04:47:48;20.40;66.00
27803;DHT22;15182;48.174;11.562;2023-06-04T04:50:17;20.40;66.10
27803;DHT22;15182;48.174;11.562;2023-06-04T04:52:44;20.40;66.20
27803;DHT22;15182;48.174;11.562;2023-06-04T04:55:12;20.40;66.40
27803;DHT22;15182;48.174;11.562;2023-06-04T04:57:41;20.40;66.40
27803;DHT22;15182;48.174;11.562;2023-06-04T05:00:11;20.40;66.30
27803;DHT22;15182;48.174;11.562;2023-06-04T05:02:43;20.40;66.30
27803;DHT22;15182;48.174;11.562;2023-06-04T05:05:11;20.40;66.30
27803;DHT22;15182;48.174;11.562;2023-06-04T05:07:41;20.40;66.20
27803;DHT22;15182;48.174;11.562;2023-06-04T05:10:09;20.40;66.20
27803;DHT22;15182;48.174;11.562;2023-06-04T05:12:37;20.40;66.20
27803;DHT22;15182;48.174;11.562;2023-06-04T05:15:10;20.50;66.10
27803;DHT22;15182;48.174;11.562;2023-06-04T05:17:39;20.40;66.10
27803;DHT22;15182;48.174;11.562;2023-06-04T05:20:10;20.40;66.00
27803;DHT22;15182;48.174;11.562;2023-06-04T05:22:41;20.40;66.10
27803;DHT22;15182;48.174;11.562;2023-06-04T05:25:09;20.50;66.30
27803;DHT22;15182;48.174;11.562;2023-06-04T05:27:37;20.50;66.10
27803;DHT22;15182;48.174;11.562;2023-06-04T05:30:10;20.50;66.30
27803;DHT22;15182;48.174;11.562;2023-06-04T05:32:39;20.50;66.30
27803;DHT22;15182;48.174;11.562;2023-06-04T05:35:10;20.50;66.10
27803;DHT22;15182;48.174;11.562;2023-06-04T05:37:39;20.50;65.90
27803;DHT22;15182;48.174;11.562;2023-06-04T05:40:09;20.50;66.00
27803;DHT22;15182;48.174;11.562;2023-06-04T05:42:37;20.50;65.80
27803;DHT22;15182;48.174;11.562;2023-06-04T05:45:06;20.50;65.80
27803;DHT22;15182;48.174;11.562;2023-06-04T05:47:38;20.60;65.80
27803;DHT22;15182;48.174;11.562;2023-06-04T05:50:07;20.60;65.70
27803;DHT22;15182;48.174;11.562;2023-06-04T05:52:35;20.60;65.60
27803;DHT22;15182;48.174;11.562;2023-06-04T05:55:06;20.60;65.30
27803;DHT22;15182;48.174;11.562;2023-06-04T05:57:36;20.70;65.40
27803;DHT22;15182;48.174;11.562;2023-06-04T06:00:05;20.70;65.40
27803;DHT22;15182;48.174;11.562;2023-06-04T06:02:41;20.70;65.50
27803;DHT22;15182;48.174;11.562;2023-06-04T06:05:22;20.70;65.70
27803;DHT22;15182;48.174;11.562;2023-06-04T06:07:50;20.70;65.70
27803;DHT22;15182;48.174;11.562;2023-06-04T06:10:18;20.80;65.80
27803;DHT22;15182;48.174;11.562;2023-06-04T06:12:46;20.80;65.80
27803;DHT22;15182;48.174;11.562;2023-06-04T06:15:14;20.90;65.90
27803;DHT22;15182;48.174;11.562;2023-06-04T06:17:45;20.90;66.10
27803;DHT22;15182;48.174;11.562;2023-06-04T06:20:14;21.00;66.20
27803;DHT22;15182;48.174;11.562;2023-06-04T06:22:44;21.00;66.00
27803;DHT22;15182;48.174;11.562;2023-06-04T06:25:13;21.10;65.90
27803;DHT22;15182;48.174;11.562;2023-06-04T06:27:47;21.20;66.10
27803;DHT22;15182;48.174;11.562;2023-06-04T06:30:17;21.30;66.10
27803;DHT22;15182;48.174;11.562;2023-06-04T06:32:46;21.30;66.10
27803;DHT22;15182;48.174;11.562;2023-06-04T06:35:14;21.40;66.00
27803;DHT22;15182;48.174;11.562;2023-06-04T06:37:42;21.50;66.20
27803;DHT22;15182;48.174;11.562;2023-06-04T06:40:10;21.60;66.20
27803;DHT22;15182;48.174;11.562;2023-06-04T06:42:39;21.70;66.00
27803;DHT22;15182;48.174;11.562;2023-06-04T06:45:07;21.70;66.10
27803;DHT22;15182;48.174;11.562;2023-06-04T06:47:36;21.90;66.40
27803;DHT22;15182;48.174;11.562;2023-06-04T06:50:06;22.00;66.00
27803;DHT22;15182;48.174;11.562;2023-06-04T06:52:34;22.00;65.90
27803;DHT22;15182;48.174;11.562;2023-06-04T06:55:03;22.10;65.70
27803;DHT22;15182;48.174;11.562;2023-06-04T06:57:32;22.20;65.50
27803;DHT22;15182;48.174;11.562;2023-06-04T07:00:00;22.30;65.30
27803;DHT22;15182;48.174;11.562;2023-06-04T07:02:28;22.40;64.90
27803;DHT22;15182;48.174;11.562;2023-06-04T07:04:56;22.50;64.60
27803;DHT22;15182;48.174;11.562;2023-06-04T07:07:25;22.60;64.40
27803;DHT22;15182;48.174;11.562;2023-06-04T07:09:52;22.70;64.10
27803;DHT22;15182;48.174;11.562;2023-06-04T07:12:20;22.80;63.90
27803;DHT22;15182;48.174;11.562;2023-06-04T07:14:48;22.80;63.80
27803;DHT22;15182;48.174;11.562;2023-06-04T07:17:16;22.90;63.80
27803;DHT22;15182;48.174;11.562;2023-06-04T07:19:44;23.00;64.60
27803;DHT22;15182;48.174;11.562;2023-06-04T07:22:11;23.10;63.70
27803;DHT22;15182;48.174;11.562;2023-06-04T07:24:43;23.20;64.00
27803;DHT22;15182;48.174;11.562;2023-06-04T07:27:12;23.30;63.80
27803;DHT22;15182;48.174;11.562;2023-06-04T07:29:43;23.40;63.80
27803;DHT22;15182;48.174;11.562;2023-06-04T07:32:12;23.50;63.40
27803;DHT22;15182;48.174;11.562;2023-06-04T07:34:40;23.50;63.30
27803;DHT22;15182;48.174;11.562;2023-06-04T07:37:07;23.60;63.30
27803;DHT22;15182;48.174;11.562;2023-06-04T07:39:36;23.60;63.00
27803;DHT22;15182;48.174;11.562;2023-06-04T07:42:05;23.70;63.00
27803;DHT22;15182;48.174;11.562;2023-06-04T07:44:34;23.70;62.80
27803;DHT22;15182;48.174;11.562;2023-06-04T07:47:04;23.80;62.90
27803;DHT22;15182;48.174;11.562;2023-06-04T07:49:32;23.90;63.10
27803;DHT22;15182;48.174;11.562;2023-06-04T07:52:00;24.00;63.30
27803;DHT22;15182;48.174;11.562;2023-06-04T07:54:27;24.00;63.00
27803;DHT22;15182;48.174;11.562;2023-06-04T07:56:55;24.10;62.60
27803;DHT22;15182;48.174;11.562;2023-06-04T07:59:25;24.20;63.00
27803;DHT22;15182;48.174;11.562;2023-06-04T08:01:53;24.30;62.50
27803;DHT22;15182;48.174;11.562;2023-06-04T08:04:21;24.40;62.70
27803;DHT22;15182;48.174;11.562;2023-06-04T08:06:49;24.40;62.00
27803;DHT22;15182;48.174;11.562;2023-06-04T08:09:17;24.40;62.00
27803;DHT22;15182;48.174;11.562;2023-06-04T08:11:45;24.50;62.20
27803;DHT22;15182;48.174;11.562;2023-06-04T08:14:13;24.60;62.20
27803;DHT22;15182;48.174;11.562;2023-06-04T08:16:42;24.60;61.80
27803;DHT22;15182;48.174;11.562;2023-06-04T08:19:10;24.70;61.50
27803;DHT22;15182;48.174;11.562;2023-06-04T08:21:37;24.80;61.40
27803;DHT22;15182;48.174;11.562;2023-06-04T08:24:08;24.90;61.00
27803;DHT22;15182;48.174;11.562;2023-06-04T08:26:35;24.90;60.60
27803;DHT22;15182;48.174;11.562;2023-06-04T08:29:03;25.00;60.40
27803;DHT22;15182;48.174;11.562;2023-06-04T08:31:31;25.10;60.40
27803;DHT22;15182;48.174;11.562;2023-06-04T08:34:01;25.20;61.50
27803;DHT22;15182;48.174;11.562;2023-06-04T08:36:31;25.20;60.90
27803;DHT22;15182;48.174;11.562;2023-06-04T08:38:59;25.30;60.60
27803;DHT22;15182;48.174;11.562;2023-06-04T08:41:29;25.30;61.60
27803;DHT22;15182;48.174;11.562;2023-06-04T08:43:57;25.50;60.60
27803;DHT22;15182;48.174;11.562;2023-06-04T08:46:28;25.50;60.90
27803;DHT22;15182;48.174;11.562;2023-06-04T08:49:02;25.60;60.80
27803;DHT22;15182;48.174;11.562;2023-06-04T08:51:33;25.70;60.60
27803;DHT22;15182;48.174;11.562;2023-06-04T08:54:04;25.80;60.20
27803;DHT22;15182;48.174;11.562;2023-06-04T08:56:33;25.90;60.00
27803;DHT22;15182;48.174;11.562;2023-06-04T08:59:03;26.00;59.70
27803;DHT22;15182;48.174;11.562;2023-06-04T09:01:33;26.00;59.50
27803;DHT22;15182;48.174;11.562;2023-06-04T09:04:06;26.10;59.50
27803;DHT22;15182;48.174;11.562;2023-06-04T09:06:34;26.20;59.40
27803;DHT22;15182;48.174;11.562;2023-06-04T09:09:04;26.20;59.50
27803;DHT22;15182;48.174;11.562;2023-06-04T09:11:35;26.30;59.30
27803;DHT22;15182;48.174;11.562;2023-06-04T09:14:07;26.40;59.40
27803;DHT22;15182;48.174;11.562;2023-06-04T09:16:43;26.40;59.00
27803;DHT22;15182;48.174;11.562;2023-06-04T09:19:13;26.50;58.60
27803;DHT22;15182;48.174;11.562;2023-06-04T09:21:48;26.60;58.70
27803;DHT22;15182;48.174;11.562;2023-06-04T09:24:17;26.60;58.50
27803;DHT22;15182;48.174;11.562;2023-06-04T09:26:45;26.70;58.60
27803;DHT22;15182;48.174;11.562;2023-06-04T09:29:13;26.80;58.60
27803;DHT22;15182;48.174;11.562;2023-06-04T09:31:43;26.90;58.30
27803;DHT22;15182;48.174;11.562;2023-06-04T09:34:14;27.00;58.40
27803;DHT22;15182;48.174;11.562;2023-06-04T09:36:42;27.00;58.40
27803;DHT22;15182;48.174;11.562;2023-06-04T09:39:16;27.10;58.20
27803;DHT22;15182;48.174;11.562;2023-06-04T09:41:44;27.20;57.90
27803;DHT22;15182;48.174;11.562;2023-06-04T09:44:12;27.30;57.60
27803;DHT22;15182;48.174;11.562;2023-06-04T09:46:40;27.40;57.40
27803;DHT22;15182;48.174;11.562;2023-06-04T09:49:07;27.50;57.20
27803;DHT22;15182;48.174;11.562;2023-06-04T09:51:47;27.60;57.20
27803;DHT22;15182;48.174;11.562;2023-06-04T09:54:15;27.70;56.90
27803;DHT22;15182;48.174;11.562;2023-06-04T09:56:43;27.80;57.00
27803;DHT22;15182;48.174;11.562;2023-06-04T09:59:13;27.90;56.70
27803;DHT22;15182;48.174;11.562;2023-06-04T10:01:41;28.00;56.40
27803;DHT22;15182;48.174;11.562;2023-06-04T10:04:09;28.00;56.40
27803;DHT22;15182;48.174;11.562;2023-06-04T10:06:39;28.10;57.30
27803;DHT22;15182;48.174;11.562;2023-06-04T10:09:09;28.20;56.50
27803;DHT22;15182;48.174;11.562;2023-06-04T10:11:39;28.30;55.90
27803;DHT22;15182;48.174;11.562;2023-06-04T10:14:14;28.40;55.50
27803;DHT22;15182;48.174;11.562;2023-06-04T10:16:45;28.50;55.60
27803;DHT22;15182;48.174;11.562;2023-06-04T10:19:14;28.60;55.40
27803;DHT22;15182;48.174;11.562;2023-06-04T10:21:44;28.70;55.10
27803;DHT22;15182;48.174;11.562;2023-06-04T10:24:12;28.80;55.30
27803;DHT22;15182;48.174;11.562;2023-06-04T10:26:42;28.80;55.20
27803;DHT22;15182;48.174;11.562;2023-06-04T10:29:10;28.90;55.10
27803;DHT22;15182;48.174;11.562;2023-06-04T10:31:39;29.00;55.00
27803;DHT22;15182;48.174;11.562;2023-06-04T10:34:07;29.10;54.90
27803;DHT22;15182;48.174;11.562;2023-06-04T10:36:44;29.20;54.40
27803;DHT22;15182;48.174;11.562;2023-06-04T10:39:12;29.30;53.80
27803;DHT22;15182;48.174;11.562;2023-06-04T10:41:41;29.50;54.00
27803;DHT22;15182;48.174;11.562;2023-06-04T10:44:08;29.60;53.80
27803;DHT22;15182;48.174;11.562;2023-06-04T10:46:40;29.70;53.80
27803;DHT22;15182;48.174;11.562;2023-06-04T10:49:09;29.80;53.20
27803;DHT22;15182;48.174;11.562;2023-06-04T10:51:38;29.90;53.30
27803;DHT22;15182;48.174;11.562;2023-06-04T10:54:08;30.00;53.00
27803;DHT22;15182;48.174;11.562;2023-06-04T10:56:36;30.10;52.70
27803;DHT22;15182;48.174;11.562;2023-06-04T10:59:13;30.20;52.50
27803;DHT22;15182;48.174;11.562;2023-06-04T11:01:42;30.20;52.30
27803;DHT22;15182;48.174;11.562;2023-06-04T11:04:19;30.20;52.60
27803;DHT22;15182;48.174;11.562;2023-06-04T11:07:00;30.30;52.60
27803;DHT22;15182;48.174;11.562;2023-06-04T11:09:31;30.40;52.30
27803;DHT22;15182;48.174;11.562;2023-06-04T11:12:00;30.40;52.30
27803;DHT22;15182;48.174;11.562;2023-06-04T11:14:28;30.40;52.50
27803;DHT22;15182;48.174;11.562;2023-06-04T11:16:56;30.50;52.10
27803;DHT22;15182;48.174;11.562;2023-06-04T11:19:24;30.60;51.90
27803;DHT22;15182;48.174;11.562;2023-06-04T11:22:03;30.60;51.90
27803;DHT22;15182;48.174;11.562;2023-06-04T11:24:32;30.70;51.90
27803;DHT22;15182;48.174;11.562;2023-06-04T11:27:00;30.70;51.80
27803;DHT22;15182;48.174;11.562;2023-06-04T11:29:28;30.80;51.80
27803;DHT22;15182;48.174;11.562;2023-06-04T11:31:56;30.80;51.40
27803;DHT22;15182;48.174;11.562;2023-06-04T11:34:24;30.90;51.30
27803;DHT22;15182;48.174;11.562;2023-06-04T11:36:53;30.90;51.40
27803;DHT22;15182;48.174;11.562;2023-06-04T11:39:22;31.00;51.20
27803;DHT22;15182;48.174;11.562;2023-06-04T11:41:51;31.10;50.80
27803;DHT22;15182;48.174;11.562;2023-06-04T11:44:20;31.10;50.70
27803;DHT22;15182;48.174;11.562;2023-06-04T11:46:48;31.10;50.70
27803;DHT22;15182;48.174;11.562;2023-06-04T11:49:18;31.10;50.60
27803;DHT22;15182;48.174;11.562;2023-06-04T11:51:47;31.10;50.40
27803;DHT22;15182;48.174;11.562;2023-06-04T11:54:16;31.10;50.00
27803;DHT22;15182;48.174;11.562;2023-06-04T11:56:45;31.10;50.20
27803;DHT22;15182;48.174;11.562;2023-06-04T11:59:16;31.10;50.00
27803;DHT22;15182;48.174;11.562;2023-06-04T12:01:46;31.10;49.20
27803;DHT22;15182;48.174;11.562;2023-06-04T12:04:15;31.00;49.60
27803;DHT22;15182;48.174;11.562;2023-06-04T12:06:51;30.90;50.10
27803;DHT22;15182;48.174;11.562;2023-06-04T12:09:20;30.90;49.90
27803;DHT22;15182;48.174;11.562;2023-06-04T12:11:49;30.80;49.90
27803;DHT22;15182;48.174;11.562;2023-06-04T12:14:18;30.80;49.90
27803;DHT22;15182;48.174;11.562;2023-06-04T12:16:54;30.90;50.30
27803;DHT22;15182;48.174;11.562;2023-06-04T12:19:23;30.90;49.90
27803;DHT22;15182;48.174;11.562;2023-06-04T12:21:59;30.90;50.10
27803;DHT22;15182;48.174;11.562;2023-06-04T12:24:29;30.90;49.30
27803;DHT22;15182;48.174;11.562;2023-06-04T12:27:04;30.90;49.60
27803;DHT22;15182;48.174;11.562;2023-06-04T12:29:34;31.00;49.70
27803;DHT22;15182;48.174;11.562;2023-06-04T12:32:04;31.10;49.50
27803;DHT22;15182;48.174;11.562;2023-06-04T12:34:34;31.10;49.70
27803;DHT22;15182;48.174;11.562;2023-06-04T12:37:02;31.20;49.50
27803;DHT22;15182;48.174;11.562;2023-06-04T12:39:32;31.20;49.20
27803;DHT22;15182;48.174;11.562;2023-06-04T12:42:00;31.30;48.90
27803;DHT22;15182;48.174;11.562;2023-06-04T12:44:27;31.40;48.80
27803;DHT22;15182;48.174;11.562;2023-06-04T12:46:56;31.40;48.60
27803;DHT22;15182;48.174;11.562;2023-06-04T12:49:24;31.50;48.20
27803;DHT22;15182;48.174;11.562;2023-06-04T12:51:52;31.50;48.40
27803;DHT22;15182;48.174;11.562;2023-06-04T12:54:19;31.60;48.30
27803;DHT22;15182;48.174;11.562;2023-06-04T12:56:47;31.50;48.50
27803;DHT22;15182;48.174;11.562;2023-06-04T12:59:15;31.50;48.60
27803;DHT22;15182;48.174;11.562;2023-06-04T13:01:43;31.50;48.40
27803;DHT22;15182;48.174;11.562;2023-06-04T13:04:12;31.40;48.40
27803;DHT22;15182;48.174;11.562;2023-06-04T13:06:39;31.30;48.10
27803;DHT22;15182;48.174;11.562;2023-06-04T13:09:08;31.20;48.20
27803;DHT22;15182;48.174;11.562;2023-06-04T13:11:37;31.10;48.40
27803;DHT22;15182;48.174;11.562;2023-06-04T13:14:06;30.90;48.10
27803;DHT22;15182;48.174;11.562;2023-06-04T13:16:34;30.80;48.60
27803;DHT22;15182;48.174;11.562;2023-06-04T13:19:02;30.80;48.70
27803;DHT22;15182;48.174;11.562;2023-06-04T13:21:31;30.60;48.60
27803;DHT22;15182;48.174;11.562;2023-06-04T13:23:58;30.60;49.00
27803;DHT22;15182;48.174;11.562;2023-06-04T13:26:26;30.50;49.10
27803;DHT22;15182;48.174;11.562;2023-06-04T13:28:54;30.40;49.30
27803;DHT22;15182;48.174;11.562;2023-06-04T13:31:22;30.30;49.50
27803;DHT22;15182;48.174;11.562;2023-06-04T13:33:50;30.20;49.20
27803;DHT22;15182;48.174;11.562;2023-06-04T13:36:17;30.20;48.90
27803;DHT22;15182;48.174;11.562;2023-06-04T13:38:46;30.20;49.00
27803;DHT22;15182;48.174;11.562;2023-06-04T13:41:14;30.20;48.90
27803;DHT22;15182;48.174;11.562;2023-06-04T13:43:42;30.20;48.90
27803;DHT22;15182;48.174;11.562;2023-06-04T13:46:09;30.20;49.10
27803;DHT22;15182;48.174;11.562;2023-06-04T13:48:37;30.20;49.20
27803;DHT22;15182;48.174;11.562;2023-06-04T13:51:05;30.30;49.30
27803;DHT22;15182;48.174;11.562;2023-06-04T13:53:33;30.30;49.00
27803;DHT22;15182;48.174;11.562;2023-06-04T13:56:02;30.30;48.70
27803;DHT22;15182;48.174;11.562;2023-06-04T13:58:30;30.20;48.70
27803;DHT22;15182;48.174;11.562;2023-06-04T14:00:58;30.10;49.50
27803;DHT22;15182;48.174;11.562;2023-06-04T14:03:25;30.10;49.00
27803;DHT22;15182;48.174;11.562;2023-06-04T14:05:53;30.10;49.10
27803;DHT22;15182;48.174;11.562;2023-06-04T14:08:21;30.10;49.90
27803;DHT22;15182;48.174;11.562;2023-06-04T14:10:48;30.10;49.40
27803;DHT22;15182;48.174;11.562;2023-06-04T14:13:19;30.10;49.70
27803;DHT22;15182;48.174;11.562;2023-06-04T14:15:47;30.00;49.60
27803;DHT22;15182;48.174;11.562;2023-06-04T14:18:14;30.10;49.60
27803;DHT22;15182;48.174;11.562;2023-06-04T14:20:42;30.10;49.50
27803;DHT22;15182;48.174;11.562;2023-06-04T14:23:12;30.10;49.50
27803;DHT22;15182;48.174;11.562;2023-06-04T14:25:42;30.10;49.80
27803;DHT22;15182;48.174;11.562;2023-06-04T14:28:10;30.10;49.50
27803;DHT22;15182;48.174;11.562;2023-06-04T14:30:39;30.10;49.40
27803;DHT22;15182;48.174;11.562;2023-06-04T14:33:07;30.10;49.30
27803;DHT22;15182;48.174;11.562;2023-06-04T14:35:35;30.00;49.00
27803;DHT22;15182;48.174;11.562;2023-06-04T14:38:05;29.90;49.00
27803;DHT22;15182;48.174;11.562;2023-06-04T14:40:34;29.80;49.10
27803;DHT22;15182;48.174;11.562;2023-06-04T14:43:01;29.70;49.30
27803;DHT22;15182;48.174;11.562;2023-06-04T14:45:29;29.70;49.50
27803;DHT22;15182;48.174;11.562;2023-06-04T14:47:58;29.60;49.60
27803;DHT22;15182;48.174;11.562;2023-06-04T14:50:26;29.60;50.10
27803;DHT22;15182;48.174;11.562;2023-06-04T14:52:54;29.60;50.40
27803;DHT22;15182;48.174;11.562;2023-06-04T14:55:21;29.50;50.20
27803;DHT22;15182;48.174;11.562;2023-06-04T14:57:49;29.50;49.80
27803;DHT22;15182;48.174;11.562;2023-06-04T15:00:17;29.50;49.70
27803;DHT22;15182;48.174;11.562;2023-06-04T15:02:45;29.40;49.90
27803;DHT22;15182;48.174;11.562;2023-06-04T15:05:14;29.40;50.30
27803;DHT22;15182;48.174;11.562;2023-06-04T15:07:42;29.30;50.40
27803;DHT22;15182;48.174;11.562;2023-06-04T15:10:10;29.40;50.50
27803;DHT22;15182;48.174;11.562;2023-06-04T15:12:37;29.30;50.50
27803;DHT22;15182;48.174;11.562;2023-06-04T15:15:07;29.30;50.30
27803;DHT22;15182;48.174;11.562;2023-06-04T15:17:35;29.30;50.20
27803;DHT22;15182;48.174;11.562;2023-06-04T15:20:03;29.30;49.90
27803;DHT22;15182;48.174;11.562;2023-06-04T15:22:33;29.30;50.00
27803;DHT22;15182;48.174;11.562;2023-06-04T15:25:01;29.20;50.10
27803;DHT22;15182;48.174;11.562;2023-06-04T15:27:29;29.20;50.10
27803;DHT22;15182;48.174;11.562;2023-06-04T15:29:57;29.20;50.00